Terminal Aerodrome Forecast
Issued by NWS

Home | Current Version | Previous Version | Text Only | Print | Product List | Glossary On
Versions: 1 2 3 4 5 6 7 8 9 10 11 12 13 14
000
FTUS42 TJSJ 232300
TAFJMZ
TAF
TJMZ 232328Z 2400/2424 07004KT P6SM SCT030 SCT060
     FM241530 04010KT P6SM SCT025 BKN040
     FM242200 06006KT P6SM SCT025 SCT040
      AMD NOT SKED=

USA.gov is the U.S. government's official web portal to all federal, state and local government web resources and services.